Strona główna
METAR-TAF:

METAR-TAF

Lotnisko :

Port lotniczy Manchester

Manchester, Anglia

Szerokość geograficzna: 53-21N, Długość geograficzna: 002-17W, wysokość: 69 m

Aktualna obserwacja pogody

Raport powstał 34 minut temu, godzina 08:20 UTC
Wiatr 5 kt od południe, zmienny między południowy wschód i południowy zachód
Temperatura 17°C
Wilgotność 63%
Ciśnienie 1035 hPa
Widzialność 10 km lub więcej

METAR: EGCC 280820Z AUTO 17005KT 130V230 9999 NCD 17/10 Q1035

czas: 09:54 (08:54 UTC)

Prognoza

Raport powstał 3 godziny i 57 minut temu, godzina 04:57 UTC
Prognoza ważna od 28 godzina 06 UTC do 29 godzina 12 UTC
Wiatr 3 kt od południowo-południowy wschód
Widzialność 10 km lub więcej
Brak chmur poniżej 1500 m i brak chmur cumulonimbus

TAF: EGCC 280457Z 2806/2912 16003KT CAVOK

Obserwacja i prognoza pogody dla ponad 4000 lotnisk (raport METAR i TAF).

Dostępne stacje oznaczono żółtymi i czerwonymi punktami na mapie.

Najedź kursorem aby zobaczyć nazwę stacji.

Kliknij aby zobaczyć obserwacje i prognozy pogody.

Aby zmienić mapę: kliknij na zielony przycisk z czarnym krzyżykiem, aby powiększyć; na zielony przycisk z myślnikiem, aby pomniejszyć; na zielone strzałki, aby przejść do map sąsiednich.


METAR-TAF: